Time,TemperatureF,DewpointF,PressureIn,WindDirection,WindDirectionDegrees,WindSpeedMPH,WindSpeedGustMPH,Humidity,HourlyPrecipIn,Conditions,Clouds,dailyrainin,SoftwareType,DateUTC
2013-04-18 00:06:00,46.4,44.5,29.95,North,32767,-999.0,0.0,93,0.04,,,0.00,Wunderground v.1.15,2013-04-18 04:06:00,
2013-04-18 00:11:00,46.3,44.7,29.94,North,32767,-999.0,0.0,94,0.09,,,0.01,Wunderground v.1.15,2013-04-18 04:11:00,
2013-04-18 00:16:00,46.2,44.6,29.93,North,32767,-999.0,0.0,94,0.06,,,0.01,Wunderground v.1.15,2013-04-18 04:16:00,
2013-04-18 00:26:00,46.2,44.6,29.90,North,32767,-999.0,0.0,94,0.14,,,0.04,Wunderground v.1.15,2013-04-18 04:26:00,
2013-04-18 00:31:00,46.2,44.6,29.88,North,32767,-999.0,0.0,94,0.11,,,0.04,Wunderground v.1.15,2013-04-18 04:31:00,
2013-04-18 00:41:00,46.3,44.9,29.90,North,32767,-999.0,0.0,95,0.06,,,0.05,Wunderground v.1.15,2013-04-18 04:41:00,
2013-04-18 00:50:00,46.2,44.8,29.86,North,32767,-999.0,0.0,95,0.04,,,0.05,Wunderground v.1.15,2013-04-18 04:50:00,
2013-04-18 00:56:00,46.2,44.8,29.85,North,32767,-999.0,0.0,95,0.00,,,0.05,Wunderground v.1.15,2013-04-18 04:56:00,
2013-04-18 01:00:00,46.1,44.7,29.85,North,32767,-999.0,0.0,95,0.00,,,0.05,Wunderground v.1.15,2013-04-18 05:00:00,
2013-04-18 01:06:00,46.1,44.7,29.85,North,32767,-999.0,0.0,95,0.00,,,0.05,Wunderground v.1.15,2013-04-18 05:06:00,
2013-04-18 01:11:00,46.1,44.7,29.87,North,32767,-999.0,0.0,95,0.00,,,0.05,Wunderground v.1.15,2013-04-18 05:11:00,
2013-04-18 01:21:00,46.3,44.9,29.87,North,32767,-999.0,0.0,95,0.00,,,0.05,Wunderground v.1.15,2013-04-18 05:21:00,
2013-04-18 01:26:00,46.4,45.0,29.88,North,32767,-999.0,0.0,95,0.00,,,0.05,Wunderground v.1.15,2013-04-18 05:26:00,
2013-04-18 01:36:00,46.8,45.4,29.86,North,32767,-999.0,0.0,95,0.00,,,0.06,Wunderground v.1.15,2013-04-18 05:36:00,
2013-04-18 01:45:00,47.0,45.6,29.86,North,32767,-999.0,0.0,95,0.06,,,0.07,Wunderground v.1.15,2013-04-18 05:45:00,
2013-04-18 01:55:00,47.2,46.1,29.85,North,32767,-999.0,0.0,96,0.12,,,0.09,Wunderground v.1.15,2013-04-18 05:55:00,
2013-04-18 02:01:00,47.3,46.2,29.86,North,32767,-999.0,0.0,96,0.15,,,0.10,Wunderground v.1.15,2013-04-18 06:01:00,
2013-04-18 02:11:00,47.4,46.3,29.84,North,32767,-999.0,0.0,96,0.21,,,0.13,Wunderground v.1.15,2013-04-18 06:11:00,
2013-04-18 02:16:00,47.5,46.4,29.83,North,32767,-999.0,0.0,96,0.21,,,0.15,Wunderground v.1.15,2013-04-18 06:16:00,
2013-04-18 02:26:00,47.6,46.5,29.85,North,32767,-999.0,0.0,96,0.19,,,0.18,Wunderground v.1.15,2013-04-18 06:26:00,
2013-04-18 02:35:00,47.5,46.4,29.82,North,32767,-999.0,0.0,96,0.30,,,0.24,Wunderground v.1.15,2013-04-18 06:35:00,
2013-04-18 02:41:00,47.3,46.2,29.82,North,32767,-999.0,0.0,96,0.22,,,0.25,Wunderground v.1.15,2013-04-18 06:41:00,
2013-04-18 02:51:00,47.4,46.3,29.85,North,32767,-999.0,0.0,96,0.16,,,0.28,Wunderground v.1.15,2013-04-18 06:51:00,
2013-04-18 02:56:00,47.4,46.3,29.85,North,32767,-999.0,0.0,96,0.30,,,0.30,Wunderground v.1.15,2013-04-18 06:56:00,
2013-04-18 03:06:00,47.2,46.1,29.82,North,32767,-999.0,0.0,96,0.28,,,0.35,Wunderground v.1.15,2013-04-18 07:06:00,
2013-04-18 03:15:00,46.9,45.8,29.82,North,32767,-999.0,0.0,96,0.25,,,0.39,Wunderground v.1.15,2013-04-18 07:15:00,
2013-04-18 03:21:00,46.6,45.5,29.80,North,32767,-999.0,0.0,96,0.30,,,0.42,Wunderground v.1.15,2013-04-18 07:21:00,
2013-04-18 03:26:00,46.5,45.4,29.81,North,32767,-999.0,0.0,96,0.16,,,0.44,Wunderground v.1.15,2013-04-18 07:26:00,
2013-04-18 03:36:00,46.4,45.3,29.82,North,32767,-999.0,0.0,96,0.24,,,0.47,Wunderground v.1.15,2013-04-18 07:36:00,
2013-04-18 03:46:00,46.4,45.3,29.78,North,32767,-999.0,0.0,96,0.21,,,0.51,Wunderground v.1.15,2013-04-18 07:46:00,
2013-04-18 03:56:00,46.6,45.5,29.78,North,32767,-999.0,0.0,96,0.91,,,0.58,Wunderground v.1.15,2013-04-18 07:56:00,
2013-04-18 04:06:00,46.6,45.5,29.79,North,32767,-999.0,0.0,96,0.36,,,0.66,Wunderground v.1.15,2013-04-18 08:06:00,
2013-04-18 04:15:00,46.7,45.6,29.78,North,32767,-999.0,0.0,96,0.40,,,0.74,Wunderground v.1.15,2013-04-18 08:15:00,
2013-04-18 04:21:00,46.8,45.7,29.79,North,32767,-999.0,0.0,96,0.94,,,0.79,Wunderground v.1.15,2013-04-18 08:21:00,
2013-04-18 04:26:00,46.8,45.7,29.78,North,32767,-999.0,0.0,96,0.69,,,0.83,Wunderground v.1.15,2013-04-18 08:26:00,
2013-04-18 04:36:00,47.1,46.0,29.76,North,32767,-999.0,0.0,96,0.32,,,0.88,Wunderground v.1.15,2013-04-18 08:36:00,
2013-04-18 04:46:00,47.4,46.3,29.76,North,32767,-999.0,0.0,96,0.26,,,0.93,Wunderground v.1.15,2013-04-18 08:46:00,
2013-04-18 04:55:00,47.6,46.8,29.75,North,32767,-999.0,0.0,97,0.18,,,0.97,Wunderground v.1.15,2013-04-18 08:55:00,
2013-04-18 05:01:00,47.9,46.8,29.75,North,32767,-999.0,0.0,96,0.40,,,1.00,Wunderground v.1.15,2013-04-18 09:01:00,
2013-04-18 05:06:00,48.3,47.5,29.74,North,32767,-999.0,0.0,97,0.44,,,1.03,Wunderground v.1.15,2013-04-18 09:06:00,
2013-04-18 05:16:00,48.9,48.1,29.75,North,32767,-999.0,0.0,97,0.41,,,1.08,Wunderground v.1.15,2013-04-18 09:16:00,
2013-04-18 05:26:00,49.3,48.5,29.73,North,32767,-999.0,0.0,97,0.44,,,1.16,Wunderground v.1.15,2013-04-18 09:26:00,
2013-04-18 05:31:00,49.4,48.6,29.72,North,32767,-999.0,0.0,97,0.26,,,1.19,Wunderground v.1.15,2013-04-18 09:31:00,
2013-04-18 05:41:00,50.0,49.2,29.71,North,32767,-999.0,0.0,97,0.38,,,1.25,Wunderground v.1.15,2013-04-18 09:41:00,
2013-04-18 05:46:00,50.4,49.6,29.72,North,32767,-999.0,0.0,97,0.48,,,1.28,Wunderground v.1.15,2013-04-18 09:46:00,
2013-04-18 05:56:00,50.9,50.1,29.71,North,32767,-999.0,0.0,97,0.20,,,1.33,Wunderground v.1.15,2013-04-18 09:56:00,
2013-04-18 06:06:00,50.9,50.1,29.69,North,32767,-999.0,0.0,97,0.78,,,1.40,Wunderground v.1.15,2013-04-18 10:06:00,
2013-04-18 06:15:00,51.0,50.2,29.67,North,32767,-999.0,0.0,97,0.79,,,1.47,Wunderground v.1.15,2013-04-18 10:15:00,
2013-04-18 06:21:00,51.0,50.2,29.65,North,32767,-999.0,0.0,97,0.19,,,1.49,Wunderground v.1.15,2013-04-18 10:21:00,
2013-04-18 06:26:00,50.9,50.1,29.65,North,32767,-999.0,0.0,97,0.09,,,1.49,Wunderground v.1.15,2013-04-18 10:26:00,
2013-04-18 06:36:00,50.9,50.1,29.64,North,32767,-999.0,0.0,97,0.06,,,1.50,Wunderground v.1.15,2013-04-18 10:36:00,
2013-04-18 06:46:00,51.2,50.4,29.62,North,32767,-999.0,0.0,97,0.00,,,1.50,Wunderground v.1.15,2013-04-18 10:46:00,
2013-04-18 06:55:00,50.9,50.1,29.70,North,32767,-999.0,0.0,97,0.00,,,1.50,Wunderground v.1.15,2013-04-18 10:55:00,
2013-04-18 07:01:00,52.2,51.4,29.70,North,32767,-999.0,0.0,97,0.37,,,1.52,Wunderground v.1.15,2013-04-18 11:01:00,
2013-04-18 07:11:00,53.8,53.0,29.71,North,32767,-999.0,0.0,97,0.99,,,1.58,Wunderground v.1.15,2013-04-18 11:11:00,
2013-04-18 07:21:00,53.2,51.8,29.67,North,32767,-999.0,0.0,95,0.63,,,1.76,Wunderground v.1.15,2013-04-18 11:21:00,
2013-04-18 07:26:00,52.9,51.5,29.67,North,32767,-999.0,0.0,95,0.16,,,1.77,Wunderground v.1.15,2013-04-18 11:26:00,
2013-04-18 07:36:00,52.8,51.7,29.67,North,32767,-999.0,0.0,96,0.28,,,1.84,Wunderground v.1.15,2013-04-18 11:36:00,
2013-04-18 07:46:00,52.4,51.3,29.67,North,32767,-999.0,0.0,96,0.13,,,1.89,Wunderground v.1.15,2013-04-18 11:46:00,
2013-04-18 07:51:00,52.3,51.2,29.67,North,32767,-999.0,0.0,96,1.16,,,1.93,Wunderground v.1.15,2013-04-18 11:51:00,
2013-04-18 08:01:00,52.3,51.2,29.66,North,32767,-999.0,0.0,96,0.15,,,2.04,Wunderground v.1.15,2013-04-18 12:01:00,
2013-04-18 08:11:00,52.3,51.2,29.65,North,32767,-999.0,0.0,96,0.08,,,2.05,Wunderground v.1.15,2013-04-18 12:11:00,
2013-04-18 08:21:00,52.4,51.3,29.65,North,32767,-999.0,0.0,96,2.78,,,2.23,Wunderground v.1.15,2013-04-18 12:21:00,
2013-04-18 08:26:00,52.9,51.8,29.65,North,32767,-999.0,0.0,96,0.32,,,2.27,Wunderground v.1.15,2013-04-18 12:26:00,
2013-04-18 08:36:00,52.6,51.5,29.64,North,32767,-999.0,0.0,96,0.19,,,2.30,Wunderground v.1.15,2013-04-18 12:36:00,
2013-04-18 08:46:00,53.0,51.9,29.63,North,32767,-999.0,0.0,96,0.05,,,2.30,Wunderground v.1.15,2013-04-18 12:46:00,
2013-04-18 08:55:00,53.0,52.2,29.63,North,32767,-999.0,0.0,97,0.08,,,2.32,Wunderground v.1.15,2013-04-18 12:55:00,
2013-04-18 09:01:00,52.9,51.8,29.63,North,32767,-999.0,0.0,96,0.14,,,2.33,Wunderground v.1.15,2013-04-18 13:01:00,
2013-04-18 09:06:00,53.2,52.4,29.61,North,32767,-999.0,0.0,97,0.12,,,2.34,Wunderground v.1.15,2013-04-18 13:06:00,
2013-04-18 09:15:00,53.3,52.5,29.61,North,32767,-999.0,0.0,97,0.06,,,2.35,Wunderground v.1.15,2013-04-18 13:15:00,
2013-04-18 09:21:00,53.4,52.6,29.60,North,32767,-999.0,0.0,97,0.06,,,2.35,Wunderground v.1.15,2013-04-18 13:21:00,
2013-04-18 09:26:00,53.6,52.8,29.59,North,32767,-999.0,0.0,97,0.04,,,2.35,Wunderground v.1.15,2013-04-18 13:26:00,
2013-04-18 09:36:00,53.6,52.8,29.59,North,32767,-999.0,0.0,97,0.00,,,2.35,Wunderground v.1.15,2013-04-18 13:36:00,
2013-04-18 09:45:00,53.5,52.7,29.58,North,32767,-999.0,0.0,97,0.00,,,2.35,Wunderground v.1.15,2013-04-18 13:45:00,
2013-04-18 09:51:00,53.3,52.5,29.58,North,32767,-999.0,0.0,97,0.00,,,2.35,Wunderground v.1.15,2013-04-18 13:51:00,
2013-04-18 09:56:00,53.3,52.5,29.57,North,32767,-999.0,0.0,97,0.00,,,2.35,Wunderground v.1.15,2013-04-18 13:56:00,
2013-04-18 10:06:00,53.2,52.1,29.56,North,32767,-999.0,0.0,96,0.00,,,2.36,Wunderground v.1.15,2013-04-18 14:06:00,
2013-04-18 10:16:00,53.3,52.2,29.55,North,32767,-999.0,0.0,96,0.00,,,2.36,Wunderground v.1.15,2013-04-18 14:16:00,
2013-04-18 10:21:00,53.6,52.5,29.55,North,32767,-999.0,0.0,96,0.00,,,2.36,Wunderground v.1.15,2013-04-18 14:21:00,
2013-04-18 10:26:00,53.7,52.6,29.55,North,32767,-999.0,0.0,96,0.00,,,2.36,Wunderground v.1.15,2013-04-18 14:26:00,
2013-04-18 10:36:00,53.5,52.4,29.54,North,32767,-999.0,0.0,96,0.00,,,2.36,Wunderground v.1.15,2013-04-18 14:36:00,
2013-04-18 10:46:00,53.7,52.6,29.53,North,32767,-999.0,0.0,96,0.00,,,2.36,Wunderground v.1.15,2013-04-18 14:46:00,
2013-04-18 10:56:00,55.0,53.9,29.52,North,32767,-999.0,0.0,96,0.00,,,2.36,Wunderground v.1.15,2013-04-18 14:56:00,
2013-04-18 11:01:00,55.6,54.5,29.51,North,32767,-999.0,0.0,96,0.00,,,2.36,Wunderground v.1.15,2013-04-18 15:01:00,
2013-04-18 11:11:00,57.1,56.0,29.50,North,32767,-999.0,0.0,96,0.00,,,2.36,Wunderground v.1.15,2013-04-18 15:11:00,
2013-04-18 11:21:00,57.8,56.7,29.50,North,32767,-999.0,0.0,96,0.00,,,2.36,Wunderground v.1.15,2013-04-18 15:21:00,
2013-04-18 11:26:00,57.6,56.2,29.50,North,32767,-999.0,0.0,95,0.00,,,2.36,Wunderground v.1.15,2013-04-18 15:26:00,
2013-04-18 11:36:00,57.9,56.5,29.58,North,32767,-999.0,0.0,95,4.33,,,2.50,Wunderground v.1.15,2013-04-18 15:36:00,
2013-04-18 11:45:00,58.1,57.0,29.54,North,32767,-999.0,0.0,96,0.14,,,2.57,Wunderground v.1.15,2013-04-18 15:45:00,
2013-04-18 11:51:00,58.2,57.1,29.54,North,32767,-999.0,0.0,96,0.07,,,2.57,Wunderground v.1.15,2013-04-18 15:51:00,
2013-04-18 12:01:00,58.2,57.1,29.54,North,32767,-999.0,0.0,96,0.00,,,2.57,Wunderground v.1.15,2013-04-18 16:01:00,
2013-04-18 12:06:00,58.2,57.1,29.54,North,32767,-999.0,0.0,96,0.00,,,2.57,Wunderground v.1.15,2013-04-18 16:06:00,
2013-04-18 12:11:00,58.2,57.1,29.53,North,32767,-999.0,0.0,96,0.00,,,2.57,Wunderground v.1.15,2013-04-18 16:11:00,
2013-04-18 12:21:00,58.4,57.3,29.53,North,32767,-999.0,0.0,96,0.00,,,2.57,Wunderground v.1.15,2013-04-18 16:21:00,
2013-04-18 12:26:00,58.5,57.4,29.54,North,32767,-999.0,0.0,96,0.00,,,2.57,Wunderground v.1.15,2013-04-18 16:26:00,
2013-04-18 12:36:00,59.0,57.9,29.54,North,32767,-999.0,0.0,96,0.00,,,2.57,Wunderground v.1.15,2013-04-18 16:36:00,
2013-04-18 12:46:00,59.2,58.3,29.53,North,32767,-999.0,0.0,97,0.00,,,2.57,Wunderground v.1.15,2013-04-18 16:46:00,
2013-04-18 12:56:00,59.8,58.9,29.53,North,32767,-999.0,0.0,97,0.00,,,2.58,Wunderground v.1.15,2013-04-18 16:56:00,
2013-04-18 13:06:00,60.3,59.4,29.55,North,32767,-999.0,0.0,97,0.04,,,2.59,Wunderground v.1.15,2013-04-18 17:06:00,
2013-04-18 13:11:00,60.5,59.6,29.54,North,32767,-999.0,0.0,97,0.04,,,2.59,Wunderground v.1.15,2013-04-18 17:11:00,
2013-04-18 13:21:00,60.9,60.0,29.53,North,32767,-999.0,0.0,97,0.11,,,2.61,Wunderground v.1.15,2013-04-18 17:21:00,
2013-04-18 13:26:00,60.9,60.0,29.54,North,32767,-999.0,0.0,97,0.08,,,2.61,Wunderground v.1.15,2013-04-18 17:26:00,
2013-04-18 13:36:00,61.3,60.4,29.54,North,32767,-999.0,0.0,97,0.06,,,2.62,Wunderground v.1.15,2013-04-18 17:36:00,
2013-04-18 13:46:00,61.6,60.7,29.55,North,32767,-999.0,0.0,97,0.08,,,2.64,Wunderground v.1.15,2013-04-18 17:46:00,
2013-04-18 13:56:00,61.7,60.5,29.54,North,32767,-999.0,0.0,96,0.09,,,2.65,Wunderground v.1.15,2013-04-18 17:56:00,
2013-04-18 14:06:00,61.6,60.4,29.54,North,32767,-999.0,0.0,96,0.05,,,2.66,Wunderground v.1.15,2013-04-18 18:06:00,
2013-04-18 14:16:00,61.5,60.3,29.55,North,32767,-999.0,0.0,96,0.04,,,2.66,Wunderground v.1.15,2013-04-18 18:16:00,
2013-04-18 14:26:00,61.4,60.2,29.56,North,32767,-999.0,0.0,96,0.00,,,2.66,Wunderground v.1.15,2013-04-18 18:26:00,
2013-04-18 14:31:00,61.3,60.2,29.56,North,32767,-999.0,0.0,96,0.00,,,2.66,Wunderground v.1.15,2013-04-18 18:31:00,
2013-04-18 14:36:00,61.3,60.2,29.56,North,32767,-999.0,0.0,96,0.00,,,2.67,Wunderground v.1.15,2013-04-18 18:36:00,
2013-04-18 14:45:00,61.2,59.8,29.57,North,32767,-999.0,0.0,95,0.00,,,2.67,Wunderground v.1.15,2013-04-18 18:45:00,
2013-04-18 14:55:00,61.3,59.9,29.57,North,32767,-999.0,0.0,95,0.00,,,2.67,Wunderground v.1.15,2013-04-18 18:55:00,
2013-04-18 15:01:00,61.3,59.9,29.57,North,32767,-999.0,0.0,95,0.00,,,2.67,Wunderground v.1.15,2013-04-18 19:01:00,
2013-04-18 15:06:00,61.3,59.9,29.57,North,32767,-999.0,0.0,95,0.00,,,2.67,Wunderground v.1.15,2013-04-18 19:06:00,
2013-04-18 15:16:00,61.1,59.4,29.57,North,32767,-999.0,0.0,94,0.00,,,2.67,Wunderground v.1.15,2013-04-18 19:16:00,
2013-04-18 15:26:00,61.2,59.5,29.57,North,32767,-999.0,0.0,94,0.00,,,2.67,Wunderground v.1.15,2013-04-18 19:26:00,
2013-04-18 15:31:00,61.3,59.6,29.57,North,32767,-999.0,0.0,94,0.00,,,2.67,Wunderground v.1.15,2013-04-18 19:31:00,
2013-04-18 15:41:00,61.3,59.6,29.57,North,32767,-999.0,0.0,94,0.00,,,2.67,Wunderground v.1.15,2013-04-18 19:41:00,
2013-04-18 15:46:00,61.3,59.9,29.56,North,32767,-999.0,0.0,95,0.00,,,2.67,Wunderground v.1.15,2013-04-18 19:46:00,
2013-04-18 15:56:00,61.3,59.9,29.56,North,32767,-999.0,0.0,95,0.00,,,2.68,Wunderground v.1.15,2013-04-18 19:56:00,
2013-04-18 16:06:00,61.5,60.1,29.56,North,32767,-999.0,0.0,95,0.00,,,2.68,Wunderground v.1.15,2013-04-18 20:06:00,
2013-04-18 16:16:00,61.7,60.0,29.57,North,32767,-999.0,0.0,94,0.00,,,2.68,Wunderground v.1.15,2013-04-18 20:16:00,
2013-04-18 16:26:00,62.0,60.3,29.54,North,32767,-999.0,0.0,94,0.00,,,2.69,Wunderground v.1.15,2013-04-18 20:26:00,
2013-04-18 16:35:00,62.4,60.3,29.53,North,32767,-999.0,0.0,93,0.00,,,2.69,Wunderground v.1.15,2013-04-18 20:35:00,
2013-04-18 16:41:00,62.5,60.4,29.53,North,32767,-999.0,0.0,93,0.00,,,2.69,Wunderground v.1.15,2013-04-18 20:41:00,
2013-04-18 16:46:00,62.5,60.4,29.52,North,32767,-999.0,0.0,93,0.00,,,2.69,Wunderground v.1.15,2013-04-18 20:46:00,
2013-04-18 16:56:00,62.6,60.5,29.53,North,32767,-999.0,0.0,93,0.00,,,2.69,Wunderground v.1.15,2013-04-18 20:56:00,
2013-04-18 17:06:00,62.6,60.5,29.53,North,32767,-999.0,0.0,93,0.00,,,2.69,Wunderground v.1.15,2013-04-18 21:06:00,
2013-04-18 17:16:00,62.6,60.5,29.53,North,32767,-999.0,0.0,93,0.00,,,2.69,Wunderground v.1.15,2013-04-18 21:16:00,
2013-04-18 17:25:00,62.5,60.4,29.53,North,32767,-999.0,0.0,93,0.00,,,2.70,Wunderground v.1.15,2013-04-18 21:25:00,
2013-04-18 17:31:00,62.4,60.3,29.53,North,32767,-999.0,0.0,93,0.00,,,2.70,Wunderground v.1.15,2013-04-18 21:31:00,
2013-04-18 17:36:00,62.3,60.2,29.54,North,32767,-999.0,0.0,93,0.00,,,2.70,Wunderground v.1.15,2013-04-18 21:36:00,
2013-04-18 17:46:00,62.4,60.3,29.53,North,32767,-999.0,0.0,93,0.00,,,2.70,Wunderground v.1.15,2013-04-18 21:46:00,
2013-04-18 17:55:00,62.5,60.4,29.52,North,32767,-999.0,0.0,93,0.00,,,2.70,Wunderground v.1.15,2013-04-18 21:55:00,
2013-04-18 18:01:00,62.6,60.2,29.52,North,32767,-999.0,0.0,92,0.00,,,2.70,Wunderground v.1.15,2013-04-18 22:01:00,
2013-04-18 18:06:00,62.7,60.0,29.52,North,32767,-999.0,0.0,91,0.00,,,2.70,Wunderground v.1.15,2013-04-18 22:06:00,
2013-04-18 18:16:00,62.7,60.0,29.51,North,32767,-999.0,0.0,91,0.00,,,2.70,Wunderground v.1.15,2013-04-18 22:16:00,
2013-04-18 18:26:00,62.6,59.9,29.51,North,32767,-999.0,0.0,91,0.00,,,2.70,Wunderground v.1.15,2013-04-18 22:26:00,
2013-04-18 18:36:00,62.4,59.7,29.52,North,32767,-999.0,0.0,91,0.00,,,2.70,Wunderground v.1.15,2013-04-18 22:36:00,
2013-04-18 18:45:00,62.5,59.5,29.52,North,32767,-999.0,0.0,90,0.00,,,2.70,Wunderground v.1.15,2013-04-18 22:45:00,
2013-04-18 18:51:00,62.3,59.6,29.51,North,32767,-999.0,0.0,91,0.00,,,2.70,Wunderground v.1.15,2013-04-18 22:51:00,
2013-04-18 18:56:00,62.3,59.6,29.50,North,32767,-999.0,0.0,91,0.00,,,2.70,Wunderground v.1.15,2013-04-18 22:56:00,
2013-04-18 19:06:00,62.3,59.3,29.49,North,32767,-999.0,0.0,90,0.00,,,2.70,Wunderground v.1.15,2013-04-18 23:06:00,
2013-04-18 19:16:00,62.3,59.0,29.46,North,32767,-999.0,0.0,89,0.00,,,2.70,Wunderground v.1.15,2013-04-18 23:16:00,
2013-04-18 19:21:00,62.2,58.9,29.46,North,32767,-999.0,0.0,89,0.00,,,2.70,Wunderground v.1.15,2013-04-18 23:21:00,
2013-04-18 19:26:00,61.9,58.9,29.45,North,32767,-999.0,0.0,90,0.00,,,2.70,Wunderground v.1.15,2013-04-18 23:26:00,
2013-04-18 19:36:00,61.8,59.1,29.48,North,32767,-999.0,0.0,91,0.00,,,2.70,Wunderground v.1.15,2013-04-18 23:36:00,
2013-04-18 19:46:00,61.6,59.3,29.50,North,32767,-999.0,0.0,92,0.00,,,2.70,Wunderground v.1.15,2013-04-18 23:46:00,
2013-04-18 19:56:00,61.5,58.8,29.45,North,32767,-999.0,0.0,91,0.00,,,2.70,Wunderground v.1.15,2013-04-18 23:56:00,
2013-04-18 20:01:00,61.5,58.8,29.45,North,32767,-999.0,0.0,91,0.00,,,2.70,Wunderground v.1.15,2013-04-19 00:01:00,
2013-04-18 20:06:00,61.4,58.7,29.43,North,32767,-999.0,0.0,91,0.00,,,2.70,Wunderground v.1.15,2013-04-19 00:06:00,
2013-04-18 20:16:00,61.3,58.3,29.38,North,32767,-999.0,0.0,90,0.00,,,2.70,Wunderground v.1.15,2013-04-19 00:16:00,
2013-04-18 20:25:00,61.5,58.2,29.40,North,32767,-999.0,0.0,89,0.00,,,2.70,Wunderground v.1.15,2013-04-19 00:25:00,
2013-04-18 20:31:00,61.8,57.9,29.42,North,32767,-999.0,0.0,87,0.00,,,2.71,Wunderground v.1.15,2013-04-19 00:31:00,
2013-04-18 20:36:00,62.2,58.0,29.44,North,32767,-999.0,0.0,86,0.00,,,2.71,Wunderground v.1.15,2013-04-19 00:36:00,
2013-04-18 20:46:00,61.9,57.7,29.43,North,32767,-999.0,0.0,86,0.00,,,2.71,Wunderground v.1.15,2013-04-19 00:46:00,
2013-04-18 20:55:00,61.7,57.5,29.43,North,32767,-999.0,0.0,86,0.00,,,2.71,Wunderground v.1.15,2013-04-19 00:55:00,
2013-04-18 21:01:00,61.9,57.3,29.44,North,32767,-999.0,0.0,85,0.00,,,2.71,Wunderground v.1.15,2013-04-19 01:01:00,
2013-04-18 21:06:00,61.8,57.2,29.45,North,32767,-999.0,0.0,85,0.00,,,2.71,Wunderground v.1.15,2013-04-19 01:06:00,
2013-04-18 21:16:00,61.8,57.6,29.46,North,32767,-999.0,0.0,86,0.00,,,2.71,Wunderground v.1.15,2013-04-19 01:16:00,
2013-04-18 21:26:00,61.7,57.5,29.46,North,32767,-999.0,0.0,86,0.00,,,2.71,Wunderground v.1.15,2013-04-19 01:26:00,
2013-04-18 21:36:00,61.2,57.9,29.46,North,32767,-999.0,0.0,89,0.00,,,2.71,Wunderground v.1.15,2013-04-19 01:36:00,
2013-04-18 21:41:00,61.2,57.3,29.47,North,32767,-999.0,0.0,87,0.00,,,2.71,Wunderground v.1.15,2013-04-19 01:41:00,
2013-04-18 21:51:00,61.3,57.4,29.49,North,32767,-999.0,0.0,87,0.00,,,2.71,Wunderground v.1.15,2013-04-19 01:51:00,
2013-04-18 21:56:00,61.2,57.3,29.49,North,32767,-999.0,0.0,87,0.00,,,2.71,Wunderground v.1.15,2013-04-19 01:56:00,
2013-04-18 22:06:00,61.5,57.6,29.48,North,32767,-999.0,0.0,87,0.00,,,2.71,Wunderground v.1.15,2013-04-19 02:06:00,
2013-04-18 22:15:00,61.1,57.2,29.47,North,32767,-999.0,0.0,87,0.00,,,2.71,Wunderground v.1.15,2013-04-19 02:15:00,
2013-04-18 22:21:00,61.0,57.4,29.46,North,32767,-999.0,0.0,88,0.00,,,2.71,Wunderground v.1.15,2013-04-19 02:21:00,
2013-04-18 22:26:00,61.1,57.5,29.47,North,32767,-999.0,0.0,88,0.00,,,2.71,Wunderground v.1.15,2013-04-19 02:26:00,
2013-04-18 22:36:00,61.0,57.4,29.47,North,32767,-999.0,0.0,88,0.00,,,2.71,Wunderground v.1.15,2013-04-19 02:36:00,
2013-04-18 22:45:00,60.9,57.3,29.45,North,32767,-999.0,0.0,88,0.00,,,2.71,Wunderground v.1.15,2013-04-19 02:45:00,
2013-04-18 22:51:00,60.9,57.6,29.45,North,32767,-999.0,0.0,89,0.00,,,2.71,Wunderground v.1.15,2013-04-19 02:51:00,
2013-04-18 22:56:00,60.9,57.6,29.45,North,32767,-999.0,0.0,89,0.00,,,2.71,Wunderground v.1.15,2013-04-19 02:56:00,
2013-04-18 23:06:00,60.6,57.7,29.44,North,32767,-999.0,0.0,90,0.00,,,2.71,Wunderground v.1.15,2013-04-19 03:06:00,
2013-04-18 23:16:00,60.4,57.5,29.42,North,32767,-999.0,0.0,90,0.00,,,2.71,Wunderground v.1.15,2013-04-19 03:16:00,
2013-04-18 23:26:00,60.5,57.6,29.42,North,32767,-999.0,0.0,90,0.00,,,2.71,Wunderground v.1.15,2013-04-19 03:26:00,
2013-04-18 23:31:00,60.9,57.9,29.42,North,32767,-999.0,0.0,90,0.00,,,2.71,Wunderground v.1.15,2013-04-19 03:31:00,
2013-04-18 23:36:00,60.8,57.8,29.41,North,32767,-999.0,0.0,90,0.00,,,2.71,Wunderground v.1.15,2013-04-19 03:36:00,
2013-04-18 23:46:00,60.7,58.1,29.42,North,32767,-999.0,0.0,91,0.00,,,2.72,Wunderground v.1.15,2013-04-19 03:46:00,
2013-04-18 23:56:00,56.6,54.3,29.44,North,32767,-999.0,0.0,92,0.16,,,2.74,Wunderground v.1.15,2013-04-19 03:56:00,